createdAt,value
2019-01-27T00:01:21.324Z,98798.12
2019-01-27T00:03:50.460Z,98796.94
2019-01-27T00:06:19.713Z,98796.19
2019-01-27T00:08:48.888Z,98790.05
2019-01-27T00:11:18.037Z,98780.76
2019-01-27T00:13:47.237Z,98780.02
2019-01-27T00:16:16.622Z,98770.91
2019-01-27T00:18:45.985Z,98761.70
2019-01-27T00:21:15.171Z,98766.19
2019-01-27T00:23:44.428Z,98760.63
2019-01-27T00:26:13.729Z,98747.64
2019-01-27T00:28:42.838Z,98750.71
2019-01-27T00:31:12.023Z,98743.40
2019-01-27T00:33:41.187Z,98741.05
2019-01-27T00:36:10.450Z,98741.16
2019-01-27T00:38:39.720Z,98724.27
2019-01-27T00:41:08.942Z,98726.41
2019-01-27T00:43:38.078Z,98719.40
2019-01-27T00:46:07.204Z,98714.55
2019-01-27T00:48:36.495Z,98706.91
2019-01-27T00:51:05.752Z,98708.80
2019-01-27T00:53:35.018Z,98701.48
2019-01-27T00:56:04.161Z,98696.55
2019-01-27T00:58:33.302Z,98694.20
2019-01-27T01:01:02.541Z,98687.98
2019-01-27T01:03:31.859Z,98679.02
2019-01-27T01:06:00.983Z,98669.59
2019-01-27T01:08:30.178Z,98661.33
2019-01-27T01:10:59.614Z,98659.09
2019-01-27T01:13:28.779Z,98652.02
2019-01-27T01:15:57.978Z,98649.90
2019-01-27T01:18:27.412Z,98635.03
2019-01-27T01:20:56.652Z,98640.22
2019-01-27T01:23:25.875Z,98626.02
2019-01-27T01:25:55.032Z,98617.69
2019-01-27T01:28:24.368Z,98616.98
2019-01-27T01:30:53.505Z,98607.66
2019-01-27T01:33:22.676Z,98609.08
2019-01-27T01:35:51.874Z,98603.78
2019-01-27T01:38:21.166Z,98595.28
2019-01-27T01:40:50.397Z,98597.52
2019-01-27T01:43:19.747Z,98588.86
2019-01-27T01:45:48.889Z,98584.55
2019-01-27T01:48:18.053Z,98574.06
2019-01-27T01:50:47.172Z,98568.66
2019-01-27T01:53:16.338Z,98566.06
2019-01-27T01:55:45.465Z,98562.41
2019-01-27T01:58:14.704Z,98556.41
2019-01-27T02:00:43.880Z,98547.45
2019-01-27T02:03:13.034Z,98551.69
2019-01-27T02:05:42.191Z,98542.95
2019-01-27T02:08:11.471Z,98542.26
2019-01-27T02:10:40.675Z,98531.53
2019-01-27T02:13:09.822Z,98528.59
2019-01-27T02:16:05.182Z,98520.05
2019-01-27T02:18:34.749Z,98513.91
2019-01-27T02:21:04.242Z,98506.06
2019-01-27T02:23:33.361Z,98496.60
2019-01-27T02:26:02.473Z,98490.81
2019-01-27T02:28:31.844Z,98491.16
2019-01-27T02:31:01.078Z,98483.02
2019-01-27T02:33:30.281Z,98480.43
2019-01-27T02:35:59.442Z,98481.47
2019-01-27T02:38:28.556Z,98479.83
2019-01-27T02:40:57.725Z,98472.17
2019-01-27T02:43:26.925Z,98464.95
2019-01-27T02:45:56.083Z,98451.16
2019-01-27T02:48:25.357Z,98450.20
2019-01-27T02:50:54.620Z,98442.20
2019-01-27T02:53:23.887Z,98446.31
2019-01-27T02:55:53.053Z,98439.83
2019-01-27T02:58:22.403Z,98436.63
2019-01-27T03:00:51.695Z,98422.36
2019-01-27T03:03:21.549Z,98425.16
2019-01-27T03:06:09.716Z,98421.14
2019-01-27T03:08:57.882Z,98417.91
2019-01-27T03:11:27.026Z,98414.84
2019-01-27T03:13:56.197Z,98409.59
2019-01-27T03:16:25.315Z,98406.23
2019-01-27T03:18:54.495Z,98401.26
2019-01-27T03:21:23.627Z,98397.50
2019-01-27T03:23:52.801Z,98387.53
2019-01-27T03:26:21.936Z,98382.74
2019-01-27T03:28:51.049Z,98380.84
2019-01-27T03:31:20.199Z,98375.05
2019-01-27T03:33:49.326Z,98373.88
2019-01-27T03:36:19.447Z,98374.70
2019-01-27T03:38:48.618Z,98363.89
2019-01-27T03:41:17.743Z,98354.48
2019-01-27T03:43:47.111Z,98355.28
2019-01-27T03:46:16.245Z,98348.19
2019-01-27T03:48:45.348Z,98347.02
2019-01-27T03:51:14.506Z,98330.97
2019-01-27T03:53:43.624Z,98327.16
2019-01-27T03:56:12.744Z,98324.69
2019-01-27T03:58:41.921Z,98324.91
2019-01-27T04:01:11.453Z,98321.49
2019-01-27T04:03:40.571Z,98310.55
2019-01-27T04:06:09.836Z,98306.53
2019-01-27T04:08:38.963Z,98296.14
2019-01-27T04:11:08.097Z,98295.33
2019-01-27T04:13:37.357Z,98288.02
2019-01-27T04:16:06.481Z,98285.98
2019-01-27T04:18:35.624Z,98280.19
2019-01-27T04:21:04.784Z,98277.85
2019-01-27T04:23:33.946Z,98275.05
2019-01-27T04:26:03.111Z,98270.55
2019-01-27T04:28:32.249Z,98259.34
2019-01-27T04:31:01.431Z,98265.56
2019-01-27T04:33:31.668Z,98255.19
2019-01-27T04:36:00.814Z,98256.39
2019-01-27T04:38:29.982Z,98249.09
2019-01-27T04:40:59.613Z,98248.81
2019-01-27T04:43:28.748Z,98241.72
2019-01-27T04:45:58.259Z,98237.34
2019-01-27T04:48:27.396Z,98225.87
2019-01-27T04:50:56.538Z,98224.58
2019-01-27T04:53:25.700Z,98219.59
2019-01-27T04:55:54.857Z,98220.28
2019-01-27T04:58:23.970Z,98218.71
2019-01-27T05:00:53.085Z,98207.84
2019-01-27T05:03:39.835Z,98205.30
2019-01-27T05:06:09.074Z,98205.50
2019-01-27T05:08:38.232Z,98198.05
2019-01-27T05:11:07.358Z,98194.63
2019-01-27T05:13:36.509Z,98185.55
2019-01-27T05:16:05.999Z,98190.19
2019-01-27T05:18:35.140Z,98188.48
2019-01-27T05:21:04.366Z,98185.88
2019-01-27T05:23:33.539Z,98186.64
2019-01-27T05:26:02.654Z,98185.00
2019-01-27T05:28:31.813Z,98172.50
2019-01-27T05:31:01.575Z,98178.51
2019-01-27T05:33:30.698Z,98170.31
2019-01-27T05:35:59.854Z,98171.13
2019-01-27T05:38:29.006Z,98166.96
2019-01-27T05:40:58.183Z,98159.85
2019-01-27T05:43:27.423Z,98163.75
2019-01-27T05:45:56.548Z,98164.47
2019-01-27T05:48:25.765Z,98160.26
2019-01-27T05:50:54.894Z,98152.88
2019-01-27T05:53:24.012Z,98149.70
2019-01-27T05:55:53.177Z,98144.81
2019-01-27T05:58:22.348Z,98142.02
2019-01-27T06:00:51.494Z,98144.07
2019-01-27T06:03:20.630Z,98146.80
2019-01-27T06:05:49.819Z,98141.00
2019-01-27T06:08:18.977Z,98137.86
2019-01-27T06:10:48.102Z,98132.60
2019-01-27T06:13:17.244Z,98136.77
2019-01-27T06:15:46.402Z,98135.95
2019-01-27T06:18:15.571Z,98130.73
2019-01-27T06:20:44.714Z,98126.22
2019-01-27T06:23:13.863Z,98127.25
2019-01-27T06:25:43.044Z,98116.86
2019-01-27T06:28:12.168Z,98109.08
2019-01-27T06:30:41.326Z,98111.47
2019-01-27T06:33:18.254Z,98109.55
2019-01-27T06:35:47.365Z,98107.92
2019-01-27T06:38:16.666Z,98098.02
2019-01-27T06:40:45.825Z,98104.36
2019-01-27T06:43:14.985Z,98097.88
2019-01-27T06:45:44.129Z,98096.78
2019-01-27T06:48:13.294Z,98097.88
2019-01-27T06:50:42.455Z,98091.66
2019-01-27T06:53:11.622Z,98084.97
2019-01-27T06:55:40.745Z,98087.77
2019-01-27T06:58:10.092Z,98083.94
2019-01-27T07:00:47.678Z,98092.55
2019-01-27T07:03:23.286Z,98082.50
2019-01-27T07:06:14.609Z,98082.03
2019-01-27T07:09:02.578Z,98078.75
2019-01-27T07:11:50.700Z,98070.90
2019-01-27T07:14:41.919Z,98071.58
2019-01-27T07:17:34.429Z,98068.98
2019-01-27T07:20:19.447Z,98078.41
2019-01-27T07:23:19.737Z,98066.59
2019-01-27T07:26:23.450Z,98066.31
2019-01-27T07:29:07.500Z,98059.83
2019-01-27T07:31:55.579Z,98061.60
2019-01-27T07:34:43.666Z,98062.14
2019-01-27T07:37:34.705Z,98057.31
2019-01-27T07:40:10.888Z,98058.00
2019-01-27T07:43:07.967Z,98048.01
2019-01-27T07:45:54.708Z,98049.11
2019-01-27T07:48:48.547Z,98050.20
2019-01-27T07:51:35.084Z,98048.09
2019-01-27T07:54:20.844Z,98042.22
2019-01-27T07:57:07.608Z,98044.34
2019-01-27T07:59:57.641Z,98046.94
2019-01-27T08:02:34.779Z,98043.52
2019-01-27T08:05:28.980Z,98042.84
2019-01-27T08:08:17.093Z,98032.45
2019-01-27T08:11:14.134Z,98037.37
2019-01-27T08:14:12.893Z,98034.77
2019-01-27T08:17:04.513Z,98031.41
2019-01-27T08:19:56.222Z,98035.79
2019-01-27T08:22:31.719Z,98028.88
2019-01-27T08:25:22.703Z,98023.88
2019-01-27T08:28:13.770Z,98025.88
2019-01-27T08:30:53.488Z,98011.80
2019-01-27T08:33:48.019Z,98020.80
2019-01-27T08:36:35.039Z,98019.89
2019-01-27T08:39:25.428Z,98015.70
2019-01-27T08:42:11.899Z,98025.44
2019-01-27T08:45:12.446Z,98027.41
2019-01-27T08:47:41.642Z,98038.28
2019-01-27T08:50:16.089Z,98023.85
2019-01-27T08:52:45.333Z,98025.97
2019-01-27T08:55:15.564Z,98027.47
2019-01-27T08:57:44.734Z,98031.55
2019-01-27T09:00:23.819Z,98024.24
2019-01-27T09:03:14.868Z,98028.14
2019-01-27T09:06:06.229Z,98025.02
2019-01-27T09:09:12.235Z,98031.15
2019-01-27T09:12:09.442Z,98022.09
2019-01-27T09:14:56.158Z,98021.50
2019-01-27T09:17:35.978Z,98020.47
2019-01-27T09:20:26.903Z,98022.05
2019-01-27T09:23:33.199Z,98020.83
2019-01-27T09:26:12.882Z,98013.47
2019-01-27T09:28:48.255Z,98017.81
2019-01-27T09:31:25.700Z,98019.73
2019-01-27T09:34:13.326Z,98019.79
2019-01-27T09:37:10.595Z,98020.13
2019-01-27T09:39:58.672Z,98017.36
2019-01-27T09:42:59.371Z,98014.28
2019-01-27T09:46:05.251Z,98014.14
2019-01-27T09:48:42.408Z,98008.95
2019-01-27T09:51:42.577Z,98011.07
2019-01-27T09:54:39.834Z,98011.80
2019-01-27T09:57:30.354Z,98004.15
2019-01-27T10:00:24.486Z,98005.89
2019-01-27T10:03:30.716Z,98001.90
2019-01-27T10:06:08.529Z,98008.41
2019-01-27T10:08:52.535Z,98007.94
2019-01-27T10:11:40.696Z,98008.41
2019-01-27T10:14:35.038Z,98013.27
2019-01-27T10:17:26.402Z,98013.59
2019-01-27T10:20:05.463Z,98015.05
2019-01-27T10:22:59.167Z,98012.84
2019-01-27T10:25:50.294Z,98007.98
2019-01-27T10:28:47.205Z,98005.33
2019-01-27T10:31:33.998Z,98005.66
2019-01-27T10:34:22.118Z,98008.39
2019-01-27T10:37:02.484Z,98002.76
2019-01-27T10:39:46.970Z,98001.12
2019-01-27T10:42:53.977Z,97994.63
2019-01-27T10:45:51.679Z,97990.54
2019-01-27T10:48:39.736Z,97993.09
2019-01-27T10:51:42.736Z,97991.69
2019-01-27T10:54:21.652Z,97988.19
2019-01-27T10:57:02.088Z,97984.58
2019-01-27T10:59:55.606Z,97990.88
2019-01-27T11:02:37.247Z,97985.48
2019-01-27T11:05:26.187Z,97977.34
2019-01-27T11:08:17.011Z,97980.28
2019-01-27T11:10:58.549Z,97978.32
2019-01-27T11:13:44.997Z,97974.67
2019-01-27T11:16:36.133Z,97975.54
2019-01-27T11:19:36.212Z,97966.02
2019-01-27T11:22:27.431Z,97961.78
2019-01-27T11:25:14.182Z,97967.51
2019-01-27T11:27:58.554Z,97965.70
2019-01-27T11:30:46.651Z,97955.48
2019-01-27T11:33:40.916Z,97954.47
2019-01-27T11:36:39.215Z,97952.36
2019-01-27T11:39:30.051Z,97948.46
2019-01-27T11:42:10.209Z,97946.49
2019-01-27T11:44:55.330Z,97936.25
2019-01-27T11:47:52.225Z,97930.91
2019-01-27T11:50:33.336Z,97939.23
2019-01-27T11:53:05.808Z,97933.56
2019-01-27T11:55:34.957Z,97926.30
2019-01-27T11:58:04.734Z,97932.84
2019-01-27T12:00:37.577Z,97929.17
2019-01-27T12:03:06.747Z,97929.66
2019-01-27T12:05:39.761Z,97925.77
2019-01-27T12:08:09.190Z,97928.17
2019-01-27T12:10:40.423Z,97932.17
2019-01-27T12:13:09.637Z,97928.03
2019-01-27T12:15:38.881Z,97924.12
2019-01-27T12:18:08.088Z,97919.22
2019-01-27T12:20:37.273Z,97923.84
2019-01-27T12:23:06.441Z,97921.09
2019-01-27T12:25:35.648Z,97925.77
2019-01-27T12:28:04.919Z,97919.45
2019-01-27T12:30:34.207Z,97919.61
2019-01-27T12:33:03.345Z,97920.37
2019-01-27T12:35:32.522Z,97916.34
2019-01-27T12:38:02.442Z,97915.58
2019-01-27T12:40:31.725Z,97917.44
2019-01-27T12:43:03.011Z,97911.19
2019-01-27T12:45:32.291Z,97925.19
2019-01-27T12:48:02.111Z,97911.19
2019-01-27T12:50:31.333Z,97914.27
2019-01-27T12:53:00.504Z,97910.36
2019-01-27T12:55:29.767Z,97910.22
2019-01-27T12:57:58.941Z,97910.66
2019-01-27T13:00:35.551Z,97915.03
2019-01-27T13:03:05.015Z,97921.57
2019-01-27T13:05:34.279Z,97914.36
2019-01-27T13:08:03.466Z,97914.32
2019-01-27T13:10:32.768Z,97918.16
2019-01-27T13:13:02.827Z,97922.53
2019-01-27T13:15:33.229Z,97922.83
2019-01-27T13:18:02.441Z,97919.13
2019-01-27T13:20:31.889Z,97923.79
2019-01-27T13:23:01.049Z,97919.89
2019-01-27T13:25:30.200Z,97919.22
2019-01-27T13:28:02.163Z,97918.65
2019-01-27T13:30:31.368Z,97922.55
2019-01-27T13:33:03.351Z,97934.18
2019-01-27T13:35:32.748Z,97927.05
2019-01-27T13:38:01.943Z,97927.25
2019-01-27T13:40:31.123Z,97921.63
2019-01-27T13:43:00.495Z,97918.98
2019-01-27T13:45:29.950Z,97923.88
2019-01-27T13:47:59.344Z,97930.98
2019-01-27T13:50:28.755Z,97929.30
2019-01-27T13:52:58.389Z,97926.16
2019-01-27T13:55:29.434Z,97927.33
2019-01-27T13:57:58.563Z,97931.80
2019-01-27T14:00:33.034Z,97929.76
2019-01-27T14:03:02.175Z,97930.59
2019-01-27T14:05:31.391Z,97932.25
2019-01-27T14:08:00.695Z,97935.28
2019-01-27T14:10:30.008Z,97932.86
2019-01-27T14:12:59.240Z,97935.94
2019-01-27T14:15:30.237Z,97935.91
2019-01-27T14:17:59.545Z,97938.59
2019-01-27T14:20:28.788Z,97940.98
2019-01-27T14:22:58.059Z,97946.44
2019-01-27T14:25:28.072Z,97943.36
2019-01-27T14:27:57.242Z,97950.13
2019-01-27T14:30:31.410Z,97954.98
2019-01-27T14:33:00.570Z,97955.55
2019-01-27T14:35:29.889Z,97964.72
2019-01-27T14:37:59.046Z,97967.39
2019-01-27T14:40:28.980Z,97973.25
2019-01-27T14:42:58.184Z,97986.50
2019-01-27T14:45:28.661Z,97988.17
2019-01-27T14:47:57.918Z,97996.55
2019-01-27T14:50:32.433Z,98007.67
2019-01-27T14:53:04.150Z,98010.36
2019-01-27T14:55:33.301Z,98010.08
2019-01-27T14:58:02.274Z,98017.91
2019-01-27T15:00:36.666Z,98030.73
2019-01-27T15:03:06.990Z,98034.84
2019-01-27T15:05:36.215Z,98045.47
2019-01-27T15:08:06.366Z,98045.52
2019-01-27T15:10:35.559Z,98067.02
2019-01-27T15:13:05.455Z,98060.89
2019-01-27T15:15:34.806Z,98061.06
2019-01-27T15:18:04.252Z,98074.56
2019-01-27T15:20:36.077Z,98071.38
2019-01-27T15:23:07.808Z,98078.19
2019-01-27T15:25:36.980Z,98083.20
2019-01-27T15:28:06.313Z,98073.09
2019-01-27T15:30:35.906Z,98080.95
2019-01-27T15:33:05.644Z,98081.34
2019-01-27T15:35:37.013Z,98088.50
2019-01-27T15:38:07.311Z,98091.70
2019-01-27T15:40:36.885Z,98098.52
2019-01-27T15:43:06.487Z,98104.64
2019-01-27T15:45:35.714Z,98105.45
2019-01-27T15:48:05.740Z,98112.88
2019-01-27T15:50:34.970Z,98119.70
2019-01-27T15:53:04.496Z,98123.70
2019-01-27T15:55:33.700Z,98122.76
2019-01-27T15:58:02.916Z,98120.99
2019-01-27T16:00:32.490Z,98133.37
2019-01-27T16:03:01.787Z,98139.97
2019-01-27T16:05:31.361Z,98137.19
2019-01-27T16:08:00.565Z,98129.45
2019-01-27T16:10:29.821Z,98141.14
2019-01-27T16:12:58.986Z,98143.75
2019-01-27T16:15:29.783Z,98142.90
2019-01-27T16:17:58.992Z,98157.03
2019-01-27T16:20:30.184Z,98154.05
2019-01-27T16:23:27.572Z,98160.30
2019-01-27T16:25:57.798Z,98161.70
2019-01-27T16:28:26.986Z,98173.49
2019-01-27T16:31:07.151Z,98179.36
2019-01-27T16:33:58.259Z,98180.83
2019-01-27T16:36:27.734Z,98179.32
2019-01-27T16:38:57.915Z,98187.56
2019-01-27T16:41:27.145Z,98192.49
2019-01-27T16:43:56.333Z,98196.96
2019-01-27T16:46:25.506Z,98200.72
2019-01-27T16:48:54.828Z,98191.79
2019-01-27T16:51:23.994Z,98199.20
2019-01-27T16:53:53.159Z,98200.01
2019-01-27T16:56:22.461Z,98200.70
2019-01-27T16:58:51.993Z,98193.53
2019-01-27T17:01:21.201Z,98195.99
2019-01-27T17:03:50.385Z,98202.58
2019-01-27T17:06:19.945Z,98206.45
2019-01-27T17:08:49.155Z,98208.80
2019-01-27T17:11:18.468Z,98209.52
2019-01-27T17:13:48.766Z,98211.16
2019-01-27T17:16:17.979Z,98212.34
2019-01-27T17:18:50.321Z,98216.47
2019-01-27T17:21:19.686Z,98220.56
2019-01-27T17:23:48.912Z,98220.09
2019-01-27T17:26:18.548Z,98227.80
2019-01-27T17:28:49.195Z,98228.62
2019-01-27T17:31:18.392Z,98231.09
2019-01-27T17:33:47.800Z,98232.96
2019-01-27T17:36:17.315Z,98230.25
2019-01-27T17:38:46.592Z,98239.31
2019-01-27T17:41:15.845Z,98236.25
2019-01-27T17:43:45.214Z,98237.52
2019-01-27T17:46:14.561Z,98244.59
2019-01-27T17:48:44.122Z,98240.59
2019-01-27T17:51:13.333Z,98239.36
2019-01-27T17:53:55.633Z,98242.92
2019-01-27T17:56:25.118Z,98247.83
2019-01-27T17:58:59.227Z,98247.36
2019-01-27T18:01:56.591Z,98248.42
2019-01-27T18:04:43.620Z,98253.13
2019-01-27T18:07:30.167Z,98259.12
2019-01-27T18:10:14.725Z,98265.39
2019-01-27T18:13:21.075Z,98269.88
2019-01-27T18:15:50.242Z,98265.41
2019-01-27T18:18:19.991Z,98269.30
2019-01-27T18:20:49.157Z,98277.30
2019-01-27T18:23:19.328Z,98274.36
2019-01-27T18:25:48.556Z,98280.39
2019-01-27T18:28:17.769Z,98286.52
2019-01-27T18:30:47.001Z,98286.39
2019-01-27T18:33:16.223Z,98281.93
2019-01-27T18:35:45.263Z,98289.69
2019-01-27T18:38:15.048Z,98290.44
2019-01-27T18:40:44.361Z,98288.88
2019-01-27T18:43:14.008Z,98296.39
2019-01-27T18:45:43.577Z,98291.38
2019-01-27T18:48:12.990Z,98296.42
2019-01-27T18:50:42.594Z,98294.90
2019-01-27T18:53:23.496Z,98298.42
2019-01-27T18:55:59.376Z,98298.89
2019-01-27T18:58:47.860Z,98303.83
2019-01-27T19:01:36.114Z,98301.97
2019-01-27T19:04:27.230Z,98299.51
2019-01-27T19:07:10.627Z,98306.91
2019-01-27T19:09:54.946Z,98306.08
2019-01-27T19:12:49.431Z,98307.86
2019-01-27T19:15:42.786Z,98314.09
2019-01-27T19:18:32.929Z,98313.86
2019-01-27T19:21:36.459Z,98312.21
2019-01-27T19:24:23.186Z,98310.55
2019-01-27T19:27:10.898Z,98310.19
2019-01-27T19:29:47.715Z,98314.41
2019-01-27T19:32:24.844Z,98307.13
2019-01-27T19:35:18.786Z,98309.39
2019-01-27T19:38:07.865Z,98309.86
2019-01-27T19:41:01.483Z,98302.11
2019-01-27T19:43:44.856Z,98305.40
2019-01-27T19:46:24.725Z,98304.80
2019-01-27T19:49:16.063Z,98311.84
2019-01-27T19:52:22.827Z,98308.91
2019-01-27T19:55:18.372Z,98313.61
2019-01-27T19:58:06.019Z,98308.08
2019-01-27T20:00:46.484Z,98311.24
2019-01-27T20:03:49.691Z,98314.33
2019-01-27T20:06:52.987Z,98307.50
2019-01-27T20:09:44.120Z,98311.61
2019-01-27T20:12:32.616Z,98315.00
2019-01-27T20:15:14.419Z,98311.95
2019-01-27T20:18:05.864Z,98316.77
2019-01-27T20:21:09.584Z,98319.45
2019-01-27T20:24:00.599Z,98315.37
2019-01-27T20:26:54.583Z,98313.59
2019-01-27T20:29:41.704Z,98310.41
2019-01-27T20:32:32.688Z,98307.83
2019-01-27T20:35:22.382Z,98309.45
2019-01-27T20:38:28.797Z,98304.28
2019-01-27T20:41:22.981Z,98303.48
2019-01-27T20:44:09.792Z,98309.34
2019-01-27T20:47:06.998Z,98300.06
2019-01-27T20:49:56.789Z,98306.02
2019-01-27T20:52:56.608Z,98298.39
2019-01-27T20:55:47.724Z,98304.98
2019-01-27T20:58:24.774Z,98297.70
2019-01-27T21:01:18.998Z,98291.96
2019-01-27T21:04:13.242Z,98294.56
2019-01-27T21:06:56.948Z,98294.56
2019-01-27T21:09:45.381Z,98296.43
2019-01-27T21:12:24.126Z,98294.55
2019-01-27T21:15:12.172Z,98290.56
2019-01-27T21:17:56.850Z,98292.78
2019-01-27T21:20:26.306Z,98283.75
2019-01-27T21:22:55.631Z,98289.40
2019-01-27T21:25:27.800Z,98289.75
2019-01-27T21:27:57.229Z,98285.73
2019-01-27T21:30:26.439Z,98284.58
2019-01-27T21:32:56.490Z,98280.59
2019-01-27T21:35:25.728Z,98281.77
2019-01-27T21:37:54.895Z,98277.31
2019-01-27T21:40:24.851Z,98278.73
2019-01-27T21:42:54.278Z,98273.81
2019-01-27T21:45:23.466Z,98271.94
2019-01-27T21:47:52.580Z,98274.27
2019-01-27T21:50:22.054Z,98277.10
2019-01-27T21:52:51.213Z,98274.27
2019-01-27T21:55:20.582Z,98278.84
2019-01-27T21:57:49.725Z,98262.52
2019-01-27T22:00:21.203Z,98264.52
2019-01-27T22:02:50.511Z,98260.41
2019-01-27T22:05:19.642Z,98251.86
2019-01-27T22:07:48.844Z,98251.27
2019-01-27T22:10:18.947Z,98247.52
2019-01-27T22:12:48.138Z,98249.99
2019-01-27T22:15:17.300Z,98250.66
2019-01-27T22:17:46.430Z,98251.97
2019-01-27T22:20:16.592Z,98247.16
2019-01-27T22:22:45.746Z,98250.92
2019-01-27T22:25:15.268Z,98245.05
2019-01-27T22:27:44.533Z,98244.81
2019-01-27T22:30:21.750Z,98244.94
2019-01-27T22:32:51.281Z,98238.45
2019-01-27T22:35:20.554Z,98240.57
2019-01-27T22:37:49.735Z,98241.63
2019-01-27T22:40:21.963Z,98233.76
2019-01-27T22:42:51.089Z,98234.58
2019-01-27T22:45:20.251Z,98231.41
2019-01-27T22:47:49.370Z,98229.89
2019-01-27T22:50:22.188Z,98228.95
2019-01-27T22:52:51.348Z,98223.31
2019-01-27T22:55:20.510Z,98219.64
2019-01-27T22:57:49.647Z,98222.57
2019-01-27T23:00:55.369Z,98222.10
2019-01-27T23:03:25.007Z,98212.82
2019-01-27T23:05:54.170Z,98211.06
2019-01-27T23:08:23.345Z,98212.70
2019-01-27T23:10:52.583Z,98211.64
2019-01-27T23:13:21.746Z,98211.30
2019-01-27T23:15:51.149Z,98204.83
2019-01-27T23:18:20.273Z,98208.47
2019-01-27T23:20:49.406Z,98207.53
2019-01-27T23:23:18.569Z,98207.53
2019-01-27T23:25:47.930Z,98203.53
2019-01-27T23:28:17.061Z,98201.66
2019-01-27T23:30:46.551Z,98204.59
2019-01-27T23:33:15.728Z,98209.14
2019-01-27T23:35:44.998Z,98207.02
2019-01-27T23:38:14.154Z,98199.97
2019-01-27T23:40:43.273Z,98202.09
2019-01-27T23:43:12.430Z,98203.14
2019-01-27T23:45:41.639Z,98204.91
2019-01-27T23:48:10.849Z,98201.50
2019-01-27T23:50:40.106Z,98205.60
2019-01-27T23:53:09.262Z,98208.19
2019-01-27T23:55:38.427Z,98201.38
2019-01-27T23:58:07.572Z,98201.84
